createdAt,value
2022-07-26T00:00:13.408Z,4.35
2022-07-26T00:02:47.871Z,3.90
2022-07-26T00:05:15.954Z,4.28
2022-07-26T00:07:42.965Z,4.32
2022-07-26T00:10:10.082Z,3.70
2022-07-26T00:12:37.514Z,3.58
2022-07-26T00:15:06.642Z,3.92
2022-07-26T00:17:33.467Z,3.70
2022-07-26T00:20:00.284Z,3.42
2022-07-26T00:22:35.943Z,3.65
2022-07-26T00:25:08.949Z,3.33
2022-07-26T00:27:39.426Z,3.60
2022-07-26T00:30:08.084Z,2.72
2022-07-26T00:32:35.051Z,3.10
2022-07-26T00:35:01.945Z,3.10
2022-07-26T00:37:28.727Z,2.90
2022-07-26T00:39:55.582Z,3.20
2022-07-26T00:42:22.363Z,3.13
2022-07-26T00:44:49.163Z,2.90
2022-07-26T00:47:16.915Z,2.80
2022-07-26T00:49:43.793Z,3.22
2022-07-26T00:52:11.599Z,3.20
2022-07-26T00:54:39.537Z,3.67
2022-07-26T00:57:07.149Z,3.03
2022-07-26T00:59:34.093Z,5.65
2022-07-26T01:02:02.964Z,4.95
2022-07-26T01:04:30.739Z,5.47
2022-07-26T01:06:57.777Z,5.32
2022-07-26T01:09:24.899Z,4.30
2022-07-26T01:11:51.688Z,4.20
2022-07-26T01:14:23.964Z,4.10
2022-07-26T01:16:51.290Z,4.50
2022-07-26T01:19:18.733Z,3.78
2022-07-26T01:21:45.939Z,3.60
2022-07-26T01:24:13.056Z,2.85
2022-07-26T01:26:40.251Z,2.20
2022-07-26T01:29:07.545Z,2.83
2022-07-26T01:31:34.418Z,3.00
2022-07-26T01:34:01.356Z,2.50
2022-07-26T01:36:28.155Z,2.63
2022-07-26T01:38:54.885Z,2.25
2022-07-26T01:41:38.078Z,2.50
2022-07-26T01:44:06.687Z,2.80
2022-07-26T01:46:35.009Z,2.50
2022-07-26T01:49:02.004Z,2.25
2022-07-26T01:51:29.162Z,2.33
2022-07-26T01:53:56.236Z,2.28
2022-07-26T01:56:23.017Z,2.00
2022-07-26T01:58:50.295Z,2.30
2022-07-26T02:01:39.073Z,2.10
2022-07-26T02:04:04.491Z,2.10
2022-07-26T02:06:31.528Z,2.25
2022-07-26T02:08:58.581Z,2.00
2022-07-26T02:11:26.440Z,2.03
2022-07-26T02:13:53.479Z,2.22
2022-07-26T02:16:20.439Z,2.22
2022-07-26T02:18:47.285Z,2.10
2022-07-26T02:21:14.107Z,1.83
2022-07-26T02:23:41.784Z,2.08
2022-07-26T02:26:08.993Z,2.00
2022-07-26T02:28:35.766Z,2.20
2022-07-26T02:31:02.558Z,2.03
2022-07-26T02:33:29.330Z,1.90
2022-07-26T02:35:56.053Z,2.00
2022-07-26T02:38:23.017Z,1.80
2022-07-26T02:40:52.584Z,1.90
2022-07-26T02:43:19.514Z,2.20
2022-07-26T02:46:01.301Z,2.03
2022-07-26T02:48:30.123Z,1.80
2022-07-26T02:50:57.068Z,1.90
2022-07-26T02:53:23.854Z,2.00
2022-07-26T02:55:50.851Z,2.22
2022-07-26T02:58:17.624Z,2.45
2022-07-26T03:00:44.428Z,2.00
2022-07-26T03:03:14.138Z,2.13
2022-07-26T03:05:41.416Z,1.73
2022-07-26T03:08:08.891Z,2.22
2022-07-26T03:10:35.605Z,2.00
2022-07-26T03:13:02.281Z,2.00
2022-07-26T03:15:29.453Z,1.63
2022-07-26T03:17:56.232Z,1.92
2022-07-26T03:20:24.049Z,1.80
2022-07-26T03:22:50.722Z,2.05
2022-07-26T03:25:17.496Z,2.05
2022-07-26T03:27:44.253Z,1.83
2022-07-26T03:30:11.864Z,2.22
2022-07-26T03:32:38.615Z,1.95
2022-07-26T03:35:06.615Z,1.98
2022-07-26T03:37:45.084Z,2.10
2022-07-26T03:40:16.358Z,2.25
2022-07-26T03:42:43.904Z,2.00
2022-07-26T03:45:11.897Z,2.20
2022-07-26T03:47:39.044Z,2.10
2022-07-26T03:50:06.332Z,1.77
2022-07-26T03:52:33.496Z,1.65
2022-07-26T03:55:00.364Z,1.90
2022-07-26T03:57:28.241Z,1.88
2022-07-26T03:59:55.792Z,1.40
2022-07-26T04:02:22.569Z,2.00
2022-07-26T04:04:49.429Z,1.95
2022-07-26T04:07:16.379Z,1.67
2022-07-26T04:09:43.160Z,1.90
2022-07-26T04:12:09.924Z,2.00
2022-07-26T04:14:36.620Z,2.20
2022-07-26T04:17:03.431Z,1.95
2022-07-26T04:19:30.165Z,1.88
2022-07-26T04:21:56.877Z,2.45
2022-07-26T04:24:25.685Z,2.20
2022-07-26T04:26:52.794Z,2.42
2022-07-26T04:29:19.513Z,2.80
2022-07-26T04:31:46.265Z,2.78
2022-07-26T04:34:12.985Z,2.90
2022-07-26T04:36:40.076Z,2.13
2022-07-26T04:39:06.893Z,2.38
2022-07-26T04:41:33.677Z,2.50
2022-07-26T04:44:00.430Z,2.33
2022-07-26T04:46:27.308Z,2.50
2022-07-26T04:48:54.233Z,2.20
2022-07-26T04:51:21.203Z,2.53
2022-07-26T04:53:48.046Z,2.40
2022-07-26T04:56:14.875Z,2.67
2022-07-26T04:58:41.704Z,2.50
2022-07-26T05:01:10.463Z,2.05
2022-07-26T05:03:38.467Z,2.20
2022-07-26T05:06:05.386Z,1.90
2022-07-26T05:08:32.276Z,2.20
2022-07-26T05:10:59.070Z,2.35
2022-07-26T05:13:30.205Z,1.83
2022-07-26T05:15:57.878Z,2.20
2022-07-26T05:18:24.628Z,1.90
2022-07-26T05:20:51.840Z,2.38
2022-07-26T05:23:20.481Z,2.08
2022-07-26T05:25:47.596Z,1.83
2022-07-26T05:28:14.388Z,2.20
2022-07-26T05:30:41.258Z,2.33
2022-07-26T05:33:08.125Z,2.00
2022-07-26T05:35:34.965Z,2.20
2022-07-26T05:38:01.845Z,2.22
2022-07-26T05:40:28.830Z,2.10
2022-07-26T05:42:55.664Z,2.00
2022-07-26T05:45:22.759Z,1.83
2022-07-26T05:47:50.937Z,1.83
2022-07-26T05:50:17.745Z,1.70
2022-07-26T05:52:44.453Z,1.75
2022-07-26T05:55:11.396Z,2.10
2022-07-26T05:57:41.672Z,1.70
2022-07-26T06:00:09.755Z,1.77
2022-07-26T06:02:36.751Z,1.95
2022-07-26T06:05:03.868Z,1.63
2022-07-26T06:07:30.758Z,1.70
2022-07-26T06:09:57.466Z,1.70
2022-07-26T06:12:24.309Z,1.40
2022-07-26T06:14:51.111Z,1.70
2022-07-26T06:17:18.215Z,1.52
2022-07-26T06:19:47.722Z,1.60
2022-07-26T06:22:14.976Z,1.83
2022-07-26T06:24:41.690Z,1.80
2022-07-26T06:27:08.463Z,2.30
2022-07-26T06:29:35.301Z,1.98
2022-07-26T06:32:02.259Z,1.98
2022-07-26T06:34:29.176Z,2.08
2022-07-26T06:36:56.186Z,2.17
2022-07-26T06:39:23.045Z,2.08
2022-07-26T06:41:49.792Z,1.73
2022-07-26T06:44:16.625Z,1.90
2022-07-26T06:46:43.558Z,2.10
2022-07-26T06:49:10.498Z,2.00
2022-07-26T06:51:38.023Z,2.10
2022-07-26T06:54:05.789Z,1.80
2022-07-26T06:56:33.014Z,2.13
2022-07-26T06:58:59.766Z,1.98
2022-07-26T07:01:55.402Z,1.85
2022-07-26T07:04:13.860Z,2.03
2022-07-26T07:06:40.792Z,1.90
2022-07-26T07:09:08.796Z,1.70
2022-07-26T07:11:35.980Z,1.63
2022-07-26T07:14:03.379Z,1.90
2022-07-26T07:16:30.639Z,1.88
2022-07-26T07:18:57.586Z,1.80
2022-07-26T07:21:24.374Z,2.05
2022-07-26T07:23:51.184Z,2.00
2022-07-26T07:26:20.264Z,2.10
2022-07-26T07:28:47.022Z,1.80
2022-07-26T07:31:15.591Z,1.77
2022-07-26T07:33:53.009Z,1.77
2022-07-26T07:36:20.855Z,1.75
2022-07-26T07:38:48.786Z,1.73
2022-07-26T07:41:16.427Z,1.70
2022-07-26T07:43:43.226Z,1.85
2022-07-26T07:46:09.983Z,2.35
2022-07-26T07:48:38.709Z,2.10
2022-07-26T07:51:08.714Z,2.08
2022-07-26T07:53:35.767Z,2.03
2022-07-26T07:56:02.621Z,2.20
2022-07-26T07:58:29.452Z,2.00
2022-07-26T08:00:56.235Z,1.90
2022-07-26T08:03:23.001Z,2.10
2022-07-26T08:05:50.811Z,2.15
2022-07-26T08:08:21.947Z,1.90
2022-07-26T08:10:52.352Z,2.40
2022-07-26T08:13:23.224Z,2.17
2022-07-26T08:15:54.626Z,2.00
2022-07-26T08:18:23.335Z,2.03
2022-07-26T08:20:52.029Z,2.35
2022-07-26T08:23:20.177Z,2.00
2022-07-26T08:25:56.210Z,2.30
2022-07-26T08:28:45.544Z,2.25
2022-07-26T08:31:11.663Z,2.03
2022-07-26T08:33:40.543Z,2.00
2022-07-26T08:36:11.824Z,2.05
2022-07-26T08:38:38.602Z,1.73
2022-07-26T08:41:05.567Z,2.10
2022-07-26T08:43:32.803Z,2.00
2022-07-26T08:46:24.389Z,2.10
2022-07-26T08:48:51.655Z,1.90
2022-07-26T08:51:21.670Z,2.20
2022-07-26T08:53:48.915Z,1.90
2022-07-26T08:56:15.660Z,2.35
2022-07-26T08:58:43.445Z,1.90
2022-07-26T09:01:15.302Z,2.10
2022-07-26T09:03:43.720Z,1.90
2022-07-26T09:06:19.400Z,1.70
2022-07-26T09:08:49.141Z,1.80
2022-07-26T09:11:24.869Z,1.70
2022-07-26T09:13:54.169Z,1.73
2022-07-26T09:16:21.223Z,1.88
2022-07-26T09:18:48.077Z,2.13
2022-07-26T09:21:36.491Z,1.80
2022-07-26T09:24:03.937Z,2.03
2022-07-26T09:26:31.026Z,1.95
2022-07-26T09:29:07.117Z,1.90
2022-07-26T09:31:34.989Z,1.83
2022-07-26T09:34:02.064Z,1.88
2022-07-26T09:36:29.371Z,1.70
2022-07-26T09:39:00.550Z,1.70
2022-07-26T09:41:36.696Z,1.63
2022-07-26T09:44:06.109Z,1.60
2022-07-26T09:46:35.792Z,1.65
2022-07-26T09:49:20.143Z,1.60
2022-07-26T09:51:49.472Z,1.63
2022-07-26T09:54:31.658Z,1.60
2022-07-26T09:56:59.800Z,1.80
2022-07-26T09:59:28.354Z,1.80
2022-07-26T10:01:58.001Z,1.83
2022-07-26T10:04:25.655Z,1.50
2022-07-26T10:06:52.857Z,1.63
2022-07-26T10:09:22.846Z,2.00
2022-07-26T10:11:57.937Z,1.88
2022-07-26T10:14:34.148Z,1.65
2022-07-26T10:17:02.006Z,1.75
2022-07-26T10:19:45.285Z,1.83
2022-07-26T10:22:43.393Z,1.60
2022-07-26T10:25:33.442Z,1.55
2022-07-26T10:28:00.225Z,1.60
2022-07-26T10:30:34.436Z,1.83
2022-07-26T10:33:10.498Z,1.75
2022-07-26T10:35:41.973Z,2.00
2022-07-26T10:38:14.744Z,1.70
2022-07-26T10:40:58.095Z,1.88
2022-07-26T10:43:42.351Z,1.77
2022-07-26T10:49:01.560Z,2.20
2022-07-26T10:51:39.692Z,2.20
2022-07-26T10:54:12.085Z,1.80
2022-07-26T10:56:40.191Z,1.88
2022-07-26T10:59:07.474Z,1.80
2022-07-26T11:01:39.392Z,2.00
2022-07-26T11:04:17.469Z,1.90
2022-07-26T11:06:45.599Z,2.00
2022-07-26T11:09:12.676Z,2.10
2022-07-26T11:11:40.168Z,2.05
2022-07-26T11:14:16.413Z,2.13
2022-07-26T11:16:49.117Z,2.08
2022-07-26T11:19:21.280Z,1.80
2022-07-26T11:21:55.327Z,1.90
2022-07-26T11:24:22.245Z,1.90
2022-07-26T11:26:49.502Z,1.92
2022-07-26T11:29:38.008Z,1.80
2022-07-26T11:32:39.067Z,1.73
2022-07-26T11:35:06.938Z,1.75
2022-07-26T11:37:33.957Z,1.45
2022-07-26T11:40:00.711Z,1.55
2022-07-26T11:42:27.412Z,1.65
2022-07-26T11:44:54.419Z,1.60
2022-07-26T11:47:24.520Z,1.55
2022-07-26T11:52:40.276Z,1.52
2022-07-26T11:55:07.674Z,1.40
2022-07-26T11:57:34.598Z,1.95
2022-07-26T12:00:01.923Z,1.63
2022-07-26T12:02:30.074Z,1.30
2022-07-26T12:05:33.366Z,1.60
2022-07-26T12:08:04.989Z,1.30
2022-07-26T12:10:32.129Z,1.42
2022-07-26T12:13:15.872Z,1.50
2022-07-26T12:15:51.718Z,1.50
2022-07-26T12:18:51.160Z,1.45
2022-07-26T12:21:17.843Z,1.70
2022-07-26T12:23:48.394Z,1.50
2022-07-26T12:26:20.209Z,1.85
2022-07-26T12:28:47.074Z,1.70
2022-07-26T12:31:23.919Z,1.60
2022-07-26T12:33:51.139Z,1.50
2022-07-26T12:36:28.249Z,1.30
2022-07-26T12:39:00.085Z,1.27
2022-07-26T12:41:40.170Z,1.60
2022-07-26T12:44:11.713Z,1.45
2022-07-26T12:46:39.145Z,1.55
2022-07-26T12:49:06.213Z,1.60
2022-07-26T12:51:33.820Z,1.73
2022-07-26T12:54:00.602Z,1.50
2022-07-26T12:56:27.338Z,1.40
2022-07-26T12:58:54.458Z,1.40
2022-07-26T13:01:21.500Z,1.58
2022-07-26T13:03:48.324Z,1.60
2022-07-26T13:06:15.073Z,1.60
2022-07-26T13:08:41.779Z,1.35
2022-07-26T13:11:08.637Z,1.45
2022-07-26T13:13:35.400Z,1.50
2022-07-26T13:16:02.106Z,1.40
2022-07-26T13:18:28.857Z,1.35
2022-07-26T13:20:56.640Z,1.45
2022-07-26T13:23:25.428Z,1.42
2022-07-26T13:25:53.669Z,1.10
2022-07-26T13:28:21.330Z,1.20
2022-07-26T13:30:48.227Z,1.05
2022-07-26T13:33:16.685Z,1.25
2022-07-26T13:35:43.523Z,1.20
2022-07-26T13:38:10.619Z,1.17
2022-07-26T13:40:37.485Z,1.13
2022-07-26T13:43:05.445Z,1.05
2022-07-26T13:45:32.149Z,1.08
2022-07-26T13:47:59.701Z,1.20
2022-07-26T13:50:29.633Z,1.23
2022-07-26T13:52:57.034Z,1.60
2022-07-26T13:55:25.472Z,1.58
2022-07-26T13:57:56.279Z,1.60
2022-07-26T14:00:28.848Z,1.65
2022-07-26T14:02:58.724Z,2.00
2022-07-26T14:05:26.718Z,1.83
2022-07-26T14:07:54.629Z,1.52
2022-07-26T14:10:22.766Z,1.60
2022-07-26T14:12:49.607Z,1.50
2022-07-26T14:15:21.761Z,1.42
2022-07-26T14:17:50.565Z,1.40
2022-07-26T14:20:17.502Z,1.20
2022-07-26T14:22:44.958Z,0.90
2022-07-26T14:25:11.968Z,1.00
2022-07-26T14:27:38.710Z,1.40
2022-07-26T14:30:06.226Z,1.10
2022-07-26T14:32:33.028Z,1.27
2022-07-26T14:34:59.755Z,1.30
2022-07-26T14:37:41.052Z,1.27
2022-07-26T14:40:13.241Z,1.00
2022-07-26T14:42:40.141Z,1.30
2022-07-26T14:45:08.186Z,1.25
2022-07-26T14:47:35.035Z,1.15
2022-07-26T14:50:06.497Z,1.00
2022-07-26T14:52:36.192Z,1.02
2022-07-26T14:55:03.015Z,0.90
2022-07-26T14:57:29.743Z,1.10
2022-07-26T14:59:56.506Z,1.20
2022-07-26T15:02:23.397Z,1.38
2022-07-26T15:04:50.257Z,1.10
2022-07-26T15:07:16.965Z,1.30
2022-07-26T15:09:43.701Z,1.20
2022-07-26T15:12:10.442Z,1.25
2022-07-26T15:14:37.832Z,1.00
2022-07-26T15:17:04.623Z,1.05
2022-07-26T15:19:31.363Z,1.20
2022-07-26T15:21:59.012Z,1.10
2022-07-26T15:24:27.060Z,1.33
2022-07-26T15:26:54.052Z,1.00
2022-07-26T15:29:20.878Z,1.08
2022-07-26T15:31:48.791Z,0.90
2022-07-26T15:34:16.223Z,1.10
2022-07-26T15:36:43.174Z,1.13
2022-07-26T15:39:18.313Z,1.15
2022-07-26T15:41:47.619Z,1.25
2022-07-26T15:44:19.433Z,1.20
2022-07-26T15:46:49.195Z,1.00
2022-07-26T15:49:17.481Z,0.93
2022-07-26T15:51:44.797Z,1.00
2022-07-26T15:54:15.121Z,1.10
2022-07-26T15:56:42.906Z,0.90
2022-07-26T15:59:10.156Z,1.10
2022-07-26T16:01:38.011Z,1.30
2022-07-26T16:04:05.756Z,0.82
2022-07-26T16:06:33.552Z,1.15
2022-07-26T16:09:19.968Z,0.98
2022-07-26T16:11:47.879Z,1.20
2022-07-26T16:14:15.531Z,1.25
2022-07-26T16:16:42.471Z,1.33
2022-07-26T16:19:10.111Z,0.95
2022-07-26T16:21:37.744Z,1.00
2022-07-26T16:24:07.102Z,1.10
2022-07-26T16:26:35.662Z,0.85
2022-07-26T16:29:03.525Z,1.02
2022-07-26T16:31:31.270Z,1.13
2022-07-26T16:33:58.374Z,1.10
2022-07-26T16:36:25.144Z,0.95
2022-07-26T16:38:51.929Z,0.93
2022-07-26T16:41:18.871Z,0.90
2022-07-26T16:43:45.638Z,1.00
2022-07-26T16:46:12.465Z,0.70
2022-07-26T16:48:39.315Z,0.88
2022-07-26T16:51:06.205Z,0.90
2022-07-26T16:53:32.945Z,0.90
2022-07-26T16:55:59.908Z,0.80
2022-07-26T16:58:26.725Z,0.85
2022-07-26T17:00:53.665Z,1.00
2022-07-26T17:03:20.867Z,0.90
2022-07-26T17:05:47.671Z,0.90
2022-07-26T17:08:14.504Z,1.08
2022-07-26T17:10:41.547Z,0.98
2022-07-26T17:13:08.385Z,0.90
2022-07-26T17:15:35.348Z,1.00
2022-07-26T17:18:02.560Z,1.05
2022-07-26T17:20:29.754Z,0.93
2022-07-26T17:22:56.691Z,1.05
2022-07-26T17:25:23.699Z,1.00
2022-07-26T17:27:50.699Z,0.88
2022-07-26T17:30:17.706Z,1.10
2022-07-26T17:32:44.621Z,1.20
2022-07-26T17:35:11.382Z,1.00
2022-07-26T17:37:38.139Z,1.13
2022-07-26T17:40:08.164Z,0.82
2022-07-26T17:42:36.126Z,0.95
2022-07-26T17:45:03.471Z,0.95
2022-07-26T17:47:30.922Z,1.00
2022-07-26T17:52:50.500Z,1.13
2022-07-26T17:55:18.986Z,0.88
2022-07-26T17:57:47.648Z,1.10
2022-07-26T18:00:16.663Z,0.95
2022-07-26T18:02:43.578Z,0.95
2022-07-26T18:05:11.280Z,0.90
2022-07-26T18:07:39.154Z,1.05
2022-07-26T18:10:06.553Z,1.08
2022-07-26T18:12:33.732Z,1.13
2022-07-26T18:15:00.484Z,0.90
2022-07-26T18:17:27.249Z,1.27
2022-07-26T18:19:54.038Z,0.95
2022-07-26T18:22:20.793Z,0.90
2022-07-26T18:24:47.566Z,0.85
2022-07-26T18:27:14.426Z,1.05
2022-07-26T18:29:41.671Z,1.10
2022-07-26T18:32:08.864Z,1.00
2022-07-26T18:34:35.612Z,0.98
2022-07-26T18:37:02.307Z,1.00
2022-07-26T18:39:30.496Z,0.98
2022-07-26T18:42:00.001Z,0.77
2022-07-26T18:44:26.779Z,0.90
2022-07-26T18:46:55.945Z,0.90
2022-07-26T18:49:23.243Z,0.95
2022-07-26T18:51:50.225Z,0.90
2022-07-26T18:54:19.617Z,0.98
2022-07-26T18:56:46.401Z,1.10
2022-07-26T18:59:13.538Z,0.95
2022-07-26T19:01:40.720Z,1.00
2022-07-26T19:04:07.959Z,0.88
2022-07-26T19:06:35.623Z,0.90
2022-07-26T19:09:02.625Z,0.85
2022-07-26T19:11:30.382Z,0.98
2022-07-26T19:13:57.504Z,0.80
2022-07-26T19:16:26.392Z,1.00
2022-07-26T19:18:57.297Z,1.15
2022-07-26T19:21:24.584Z,0.95
2022-07-26T19:23:51.438Z,0.90
2022-07-26T19:26:18.445Z,0.90
2022-07-26T19:28:45.202Z,1.00
2022-07-26T19:31:12.084Z,0.93
2022-07-26T19:33:38.908Z,0.90
2022-07-26T19:36:05.784Z,1.00
2022-07-26T19:38:33.136Z,1.00
2022-07-26T19:41:00.558Z,1.13
2022-07-26T19:43:27.939Z,1.00
2022-07-26T19:45:54.798Z,1.10
2022-07-26T19:48:21.658Z,1.13
2022-07-26T19:50:48.702Z,1.13
2022-07-26T19:53:15.505Z,1.10
2022-07-26T19:55:42.552Z,1.15
2022-07-26T19:58:09.749Z,1.02
2022-07-26T20:00:36.730Z,0.90
2022-07-26T20:03:03.841Z,0.93
2022-07-26T20:05:30.712Z,0.80
2022-07-26T20:07:58.184Z,1.38
2022-07-26T20:10:30.031Z,0.95
2022-07-26T20:12:58.707Z,1.10
2022-07-26T20:15:26.169Z,1.10
2022-07-26T20:17:52.973Z,1.10
2022-07-26T20:20:20.264Z,1.00
2022-07-26T20:22:47.046Z,1.10
2022-07-26T20:25:18.091Z,1.10
2022-07-26T20:30:17.236Z,1.00
2022-07-26T20:32:44.598Z,1.00
2022-07-26T20:35:11.982Z,0.90
2022-07-26T20:37:40.727Z,0.90
2022-07-26T20:40:09.331Z,1.35
2022-07-26T20:42:40.388Z,0.93
2022-07-26T20:45:11.403Z,1.05
2022-07-26T20:47:40.465Z,1.15
2022-07-26T20:50:13.641Z,1.10
2022-07-26T20:52:40.394Z,1.30
2022-07-26T20:55:08.142Z,1.20
2022-07-26T20:57:35.313Z,1.27
2022-07-26T21:00:04.449Z,1.00
2022-07-26T21:02:31.263Z,1.10
2022-07-26T21:04:58.793Z,1.00
2022-07-26T21:07:55.609Z,0.93
2022-07-26T21:10:13.686Z,1.08
2022-07-26T21:12:40.482Z,1.20
2022-07-26T21:15:07.615Z,1.10
2022-07-26T21:17:34.704Z,1.50
2022-07-26T21:20:02.937Z,1.23
2022-07-26T21:22:29.829Z,1.17
2022-07-26T21:24:56.886Z,1.30
2022-07-26T21:27:23.666Z,1.40
2022-07-26T21:29:50.619Z,1.10
2022-07-26T21:32:17.335Z,1.30
2022-07-26T21:34:44.092Z,1.00
2022-07-26T21:37:10.866Z,1.23
2022-07-26T21:39:37.600Z,1.20
2022-07-26T21:42:04.578Z,1.17
2022-07-26T21:44:31.340Z,1.30
2022-07-26T21:46:58.131Z,1.10
2022-07-26T21:49:24.966Z,1.13
2022-07-26T21:51:53.138Z,1.27
2022-07-26T21:54:20.101Z,1.25
2022-07-26T21:56:49.434Z,1.17
2022-07-26T21:59:16.470Z,1.02
2022-07-26T22:01:43.403Z,1.30
2022-07-26T22:04:10.294Z,1.20
2022-07-26T22:06:37.805Z,1.35
2022-07-26T22:09:05.215Z,1.30
2022-07-26T22:11:32.139Z,1.48
2022-07-26T22:13:58.981Z,1.20
2022-07-26T22:16:25.884Z,1.30
2022-07-26T22:18:52.750Z,1.30
2022-07-26T22:21:19.741Z,1.10
2022-07-26T22:23:46.923Z,1.27
2022-07-26T22:26:15.132Z,1.23
2022-07-26T22:28:44.309Z,1.52
2022-07-26T22:31:11.213Z,1.38
2022-07-26T22:33:38.140Z,1.58
2022-07-26T22:36:06.983Z,1.20
2022-07-26T22:38:34.064Z,1.30
2022-07-26T22:41:00.937Z,1.23
2022-07-26T22:43:27.752Z,1.50
2022-07-26T22:45:54.729Z,1.70
2022-07-26T22:48:21.798Z,1.63
2022-07-26T22:50:48.734Z,1.40
2022-07-26T22:53:16.487Z,1.30
2022-07-26T22:55:43.466Z,1.30
2022-07-26T22:58:10.372Z,1.45
2022-07-26T23:00:37.362Z,1.70
2022-07-26T23:03:04.748Z,1.40
2022-07-26T23:05:46.349Z,1.40
2022-07-26T23:08:36.772Z,1.30
2022-07-26T23:11:02.395Z,1.52
2022-07-26T23:13:29.459Z,1.60
2022-07-26T23:16:00.351Z,1.60
2022-07-26T23:18:28.718Z,1.48
2022-07-26T23:20:55.554Z,1.50
2022-07-26T23:23:22.511Z,1.50
2022-07-26T23:25:52.217Z,1.50
2022-07-26T23:28:35.288Z,1.67
2022-07-26T23:31:05.844Z,1.50
2022-07-26T23:33:52.366Z,1.60
2022-07-26T23:36:22.378Z,1.48
2022-07-26T23:38:49.309Z,1.70
2022-07-26T23:41:16.343Z,1.50
2022-07-26T23:43:43.328Z,1.70
2022-07-26T23:46:10.536Z,1.50
2022-07-26T23:48:39.258Z,1.48
2022-07-26T23:51:06.158Z,1.40
2022-07-26T23:53:33.175Z,1.40
2022-07-26T23:56:00.174Z,1.58
2022-07-26T23:58:29.723Z,1.42
